»·PEaware :: N26292 KGTF-KDLN

N26292 :: KGTF-KDLN

FLIGHT INFORMATION

Flight Status: Arrived
Operator: Privately registered:
United States
More flights under this callsign
Pilot: Friedhelm S. (2894)
Aircraft: PIPER PA-28R-201 ARROW
(P28R)
More flights by this aircraft type
Origin: KGTF Great Falls Intl
United States
Destination: KDLN Dillon
United States
More flights between these airports :: More routes between these airports
Route:
File this flight plan on PilotEdge
Remarks:
Altitude:
(Current/Filed)
10,500ft
Speed:
(Current/Filed)
145kts
Departed: 12-Oct-17 09:46 AM
Arrived: 12-Oct-17 10:49 AM
Distance/Time
Traveled:
143nm/1:03
Distance/Time
To Go:
Arrived

Flight Plot

Page will automatically refresh every two minutes.

Flight plan parsing failed; only flown route is shown


Map Options




Map Legend


Flown Route
Filed Route
Departure Airport
Arrival Airport
Navaid (VOR, NDB)
Fix

Horizontal Profiles

Position Reports

Time Latitude Longitude Heading Altitude Ground
Speed
12-Oct-17 09:42 47.486889 -111.354202 314 3638ft 0kts
12-Oct-17 09:43 47.486889 -111.354202 314 3638ft 0kts
12-Oct-17 09:44 47.486889 -111.354202 314 3638ft 0kts
12-Oct-17 09:45 47.486889 -111.354202 314 3638ft 0kts
12-Oct-17 09:46 47.486889 -111.354202 314 3638ft 0kts
12-Oct-17 09:47 47.486889 -111.354202 314 3638ft 0kts
12-Oct-17 09:48 47.486889 -111.354202 314 3638ft 0kts
12-Oct-17 09:49 47.486780 -111.355005 291 3647ft 6kts
12-Oct-17 09:50 47.489036 -111.353066 312 3618ft 0kts
12-Oct-17 09:51 47.484503 -111.361431 229 3827ft 75kts
12-Oct-17 09:52 47.468495 -111.389281 231 4994ft 97kts
12-Oct-17 09:53 47.447392 -111.414320 204 6208ft 104kts
12-Oct-17 09:54 47.420385 -111.428748 207 7347ft 104kts
12-Oct-17 09:55 47.392822 -111.443384 206 8390ft 107kts
12-Oct-17 09:56 47.364837 -111.459114 210 9363ft 109kts
12-Oct-17 09:57 47.336201 -111.474860 204 10246ft 115kts
12-Oct-17 09:58 47.305164 -111.489392 199 10874ft 117kts
12-Oct-17 09:59 47.271253 -111.509566 213 10693ft 141kts
12-Oct-17 10:00 47.235026 -111.537493 216 10528ft 145kts
12-Oct-17 10:01 47.200022 -111.566816 215 10505ft 143kts
12-Oct-17 10:02 47.164382 -111.592539 213 10509ft 145kts
12-Oct-17 10:03 47.129304 -111.619698 224 10559ft 137kts
12-Oct-17 10:04 47.095744 -111.650237 215 10427ft 147kts
12-Oct-17 10:05 47.061549 -111.677576 215 10511ft 141kts
12-Oct-17 10:06 47.027576 -111.705741 211 10514ft 144kts
12-Oct-17 10:07 46.992075 -111.730513 212 10578ft 140kts
12-Oct-17 10:08 46.957135 -111.756480 211 10556ft 141kts
12-Oct-17 10:09 46.921859 -111.781665 212 10567ft 140kts
12-Oct-17 10:10 46.887412 -111.808548 207 10502ft 156kts
12-Oct-17 10:11 46.846567 -111.829145 209 10565ft 155kts
12-Oct-17 10:12 46.806464 -111.852714 208 10552ft 159kts
12-Oct-17 10:13 46.766196 -111.875277 207 10597ft 153kts
12-Oct-17 10:14 46.726086 -111.896237 199 10523ft 154kts
12-Oct-17 10:15 46.685402 -111.911955 206 10520ft 150kts
12-Oct-17 10:16 46.647933 -111.935166 209 10580ft 146kts
12-Oct-17 10:17 46.610142 -111.958340 213 10533ft 149kts
12-Oct-17 10:18 46.569287 -111.972081 194 10580ft 149kts
12-Oct-17 10:19 46.528226 -111.981711 198 10627ft 149kts
12-Oct-17 10:20 46.486976 -111.994484 199 10515ft 156kts
12-Oct-17 10:21 46.445726 -112.006981 199 10571ft 152kts
12-Oct-17 10:22 46.404665 -112.018303 200 10600ft 151kts
12-Oct-17 10:23 46.363503 -112.032030 200 10589ft 150kts
12-Oct-17 10:24 46.322410 -112.044362 199 10552ft 153kts
12-Oct-17 10:25 46.281118 -112.057620 199 10535ft 153kts
12-Oct-17 10:26 46.240134 -112.069467 197 10534ft 155kts
12-Oct-17 10:27 46.198771 -112.080882 197 10618ft 150kts
12-Oct-17 10:28 46.157329 -112.092280 197 10553ft 159kts
12-Oct-17 10:29 46.113991 -112.103731 195 10544ft 158kts
12-Oct-17 10:30 46.070931 -112.112108 196 10591ft 158kts
12-Oct-17 10:31 46.027564 -112.124242 199 10579ft 159kts
12-Oct-17 10:31 45.991898 -112.136602 200 10591ft 157kts
12-Oct-17 10:33 45.942586 -112.154823 201 10611ft 157kts
12-Oct-17 10:34 45.900311 -112.172003 201 10606ft 156kts
12-Oct-17 10:35 45.863470 -112.180539 194 10679ft 153kts
12-Oct-17 10:35 45.831713 -112.190200 201 10608ft 154kts
12-Oct-17 10:37 45.784043 -112.207749 198 10587ft 147kts
12-Oct-17 10:37 45.749964 -112.218531 202 10505ft 149kts
12-Oct-17 10:38 45.709579 -112.233485 202 10491ft 149kts
12-Oct-17 10:39 45.669574 -112.248283 200 10517ft 147kts
12-Oct-17 10:41 45.622956 -112.261977 199 10569ft 144kts
12-Oct-17 10:41 45.589518 -112.271458 197 10289ft 152kts
12-Oct-17 10:43 45.540692 -112.285758 197 9712ft 159kts
12-Oct-17 10:43 45.507465 -112.303343 210 9311ft 152kts
12-Oct-17 10:44 45.469202 -112.329400 211 8779ft 151kts
12-Oct-17 10:45 45.429536 -112.348565 192 8229ft 154kts
12-Oct-17 10:46 45.387017 -112.358861 206 7615ft 155kts
12-Oct-17 10:47 45.353922 -112.396535 225 7112ft 150kts
12-Oct-17 10:48 45.324400 -112.438371 224 6684ft 145kts
12-Oct-17 10:49 45.301909 -112.477511 233 6978ft 108kts
12-Oct-17 10:50 45.282716 -112.502904 225 6444ft 87kts
12-Oct-17 10:51 45.267618 -112.527137 230 5704ft 74kts
12-Oct-17 10:52 45.255477 -112.547254 229 5253ft 62kts
12-Oct-17 10:53 45.250555 -112.556445 318 5212ft 0kts
12-Oct-17 10:54 45.251164 -112.558665 315 5205ft 5kts
12-Oct-17 10:55 45.251295 -112.558393 157 5205ft 0kts
12-Oct-17 10:56 45.251295 -112.558393 157 5205ft 0kts
12-Oct-17 10:57 45.251295 -112.558393 157 5205ft 0kts
12-Oct-17 10:58 45.251295 -112.558393 157 5205ft 0kts
12-Oct-17 10:59 45.251295 -112.558393 157 5205ft 0kts
12-Oct-17 11:00 45.251295 -112.558393 157 5205ft 0kts
12-Oct-17 11:01 45.251295 -112.558393 157 5205ft 0kts
12-Oct-17 11:02 45.251295 -112.558393 157 5205ft 0kts
12-Oct-17 11:03 45.251295 -112.558393 157 5205ft 0kts
12-Oct-17 11:04 45.251295 -112.558393 157 5205ft 0kts
12-Oct-17 11:05 45.251295 -112.558393 157 5205ft 0kts
12-Oct-17 11:06 45.251295 -112.558393 157 5205ft 0kts
12-Oct-17 11:07 45.251295 -112.558393 157 5205ft 0kts

Navigation Log

Ident Type
Flight plan parsing failed, navigation log unavailable